sensor_id;sensor_type;location;lat;lon;timestamp;pressure;altitude;pressure_sealevel;temperature;humidity
11648;BME280;5880;52.342;9.662;2023-04-09T00:02:21;102089.97;;;10.27;47.73
11648;BME280;5880;52.342;9.662;2023-04-09T00:04:47;102098.00;;;10.28;47.75
11648;BME280;5880;52.342;9.662;2023-04-09T00:07:12;102101.59;;;10.29;48.06
11648;BME280;5880;52.342;9.662;2023-04-09T00:09:38;102094.41;;;10.28;48.23
11648;BME280;5880;52.342;9.662;2023-04-09T00:12:04;102102.44;;;10.29;48.40
11648;BME280;5880;52.342;9.662;2023-04-09T00:14:30;102103.25;;;10.30;48.48
11648;BME280;5880;52.342;9.662;2023-04-09T00:16:55;102100.16;;;10.33;48.63
11648;BME280;5880;52.342;9.662;2023-04-09T00:19:21;102097.22;;;10.34;48.78
11648;BME280;5880;52.342;9.662;2023-04-09T00:21:46;102094.78;;;10.40;48.66
11648;BME280;5880;52.342;9.662;2023-04-09T00:24:13;102099.00;;;10.42;48.83
11648;BME280;5880;52.342;9.662;2023-04-09T00:26:38;102099.25;;;10.47;48.95
11648;BME280;5880;52.342;9.662;2023-04-09T00:29:04;102081.34;;;10.45;48.95
11648;BME280;5880;52.342;9.662;2023-04-09T00:31:30;102088.38;;;10.54;49.08
11648;BME280;5880;52.342;9.662;2023-04-09T00:33:56;102085.91;;;10.59;49.12
11648;BME280;5880;52.342;9.662;2023-04-09T00:36:21;102088.22;;;10.62;49.11
11648;BME280;5880;52.342;9.662;2023-04-09T00:38:49;102084.25;;;10.65;49.33
11648;BME280;5880;52.342;9.662;2023-04-09T00:41:16;102087.63;;;10.67;49.14
11648;BME280;5880;52.342;9.662;2023-04-09T00:43:42;102090.59;;;10.65;49.19
11648;BME280;5880;52.342;9.662;2023-04-09T00:46:07;102087.19;;;10.63;49.24
11648;BME280;5880;52.342;9.662;2023-04-09T00:48:33;102085.50;;;10.62;49.27
11648;BME280;5880;52.342;9.662;2023-04-09T00:50:59;102085.31;;;10.64;49.54
11648;BME280;5880;52.342;9.662;2023-04-09T00:53:25;102090.59;;;10.65;49.63
11648;BME280;5880;52.342;9.662;2023-04-09T00:55:52;102091.44;;;10.66;49.39
11648;BME280;5880;52.342;9.662;2023-04-09T00:58:18;102089.72;;;10.65;49.79
11648;BME280;5880;52.342;9.662;2023-04-09T01:00:43;102087.19;;;10.63;49.58
11648;BME280;5880;52.342;9.662;2023-04-09T01:03:09;102087.19;;;10.63;49.78
11648;BME280;5880;52.342;9.662;2023-04-09T01:05:50;102084.25;;;10.65;49.97
11648;BME280;5880;52.342;9.662;2023-04-09T01:11:40;102083.41;;;10.64;49.82
11648;BME280;5880;52.342;9.662;2023-04-09T01:14:31;102082.38;;;10.65;50.03
11648;BME280;5880;52.342;9.662;2023-04-09T01:17:04;102079.66;;;10.65;49.83
11648;BME280;5880;52.342;9.662;2023-04-09T01:20:03;102077.94;;;10.64;49.88
11648;BME280;5880;52.342;9.662;2023-04-09T01:22:47;102078.78;;;10.65;49.86
11648;BME280;5880;52.342;9.662;2023-04-09T01:28:22;102076.63;;;10.60;49.71
11648;BME280;5880;52.342;9.662;2023-04-09T01:31:03;102081.25;;;10.60;49.75
11648;BME280;5880;52.342;9.662;2023-04-09T01:33:30;102076.84;;;10.59;49.70
11648;BME280;5880;52.342;9.662;2023-04-09T01:35:56;102079.38;;;10.60;49.92
11648;BME280;5880;52.342;9.662;2023-04-09T01:38:24;102067.41;;;10.61;49.94
11648;BME280;5880;52.342;9.662;2023-04-09T01:40:51;102063.84;;;10.61;49.81
11648;BME280;5880;52.342;9.662;2023-04-09T01:43:18;102071.81;;;10.62;49.80
11648;BME280;5880;52.342;9.662;2023-04-09T01:45:46;102062.59;;;10.63;49.90
11648;BME280;5880;52.342;9.662;2023-04-09T01:48:13;102065.31;;;10.63;49.91
11648;BME280;5880;52.342;9.662;2023-04-09T01:50:41;102065.31;;;10.63;49.71
11648;BME280;5880;52.342;9.662;2023-04-09T01:53:07;102071.81;;;10.62;49.78
11648;BME280;5880;52.342;9.662;2023-04-09T01:55:32;102068.84;;;10.57;49.59
11648;BME280;5880;52.342;9.662;2023-04-09T01:57:58;102073.66;;;10.55;49.68
11648;BME280;5880;52.342;9.662;2023-04-09T02:00:30;102063.97;;;10.52;49.67
11648;BME280;5880;52.342;9.662;2023-04-09T02:03:12;102068.38;;;10.53;49.98
11648;BME280;5880;52.342;9.662;2023-04-09T02:08:47;102067.47;;;10.46;49.73
11648;BME280;5880;52.342;9.662;2023-04-09T02:11:15;102062.59;;;10.42;49.79
11648;BME280;5880;52.342;9.662;2023-04-09T02:13:42;102053.13;;;10.38;49.78
11648;BME280;5880;52.342;9.662;2023-04-09T02:16:11;102047.66;;;10.38;49.89
11648;BME280;5880;52.342;9.662;2023-04-09T02:18:38;102052.06;;;10.39;49.61
11648;BME280;5880;52.342;9.662;2023-04-09T02:21:04;102054.13;;;10.37;49.77
11648;BME280;5880;52.342;9.662;2023-04-09T02:23:30;102067.16;;;10.34;49.61
11648;BME280;5880;52.342;9.662;2023-04-09T02:25:58;102060.00;;;10.33;49.64
11648;BME280;5880;52.342;9.662;2023-04-09T02:28:23;102048.41;;;10.31;49.35
11648;BME280;5880;52.342;9.662;2023-04-09T02:30:49;102044.75;;;10.24;49.62
11648;BME280;5880;52.342;9.662;2023-04-09T02:33:15;102057.56;;;10.24;49.45
11648;BME280;5880;52.342;9.662;2023-04-09T02:35:40;102054.19;;;10.22;49.45
11648;BME280;5880;52.342;9.662;2023-04-09T02:38:08;102055.59;;;10.18;49.54
11648;BME280;5880;52.342;9.662;2023-04-09T02:40:41;102054.13;;;10.15;49.45
11648;BME280;5880;52.342;9.662;2023-04-09T02:43:08;102053.19;;;10.08;49.40
11648;BME280;5880;52.342;9.662;2023-04-09T02:45:35;102057.63;;;10.09;49.63
11648;BME280;5880;52.342;9.662;2023-04-09T02:48:01;102050.66;;;10.06;49.65
11648;BME280;5880;52.342;9.662;2023-04-09T02:50:26;102058.66;;;10.08;49.60
11648;BME280;5880;52.342;9.662;2023-04-09T02:52:52;102058.19;;;10.04;49.79
11648;BME280;5880;52.342;9.662;2023-04-09T02:55:19;102045.50;;;9.97;49.85
11648;BME280;5880;52.342;9.662;2023-04-09T02:57:45;102055.03;;;10.01;49.91
11648;BME280;5880;52.342;9.662;2023-04-09T03:00:11;102050.41;;;10.01;49.90
11648;BME280;5880;52.342;9.662;2023-04-09T03:02:37;102045.16;;;10.00;49.64
11648;BME280;5880;52.342;9.662;2023-04-09T03:05:03;102043.44;;;9.99;49.82
11648;BME280;5880;52.342;9.662;2023-04-09T03:07:29;102043.84;;;9.96;49.85
11648;BME280;5880;52.342;9.662;2023-04-09T03:09:55;102049.66;;;9.92;49.92
11648;BME280;5880;52.342;9.662;2023-04-09T03:12:21;102038.75;;;9.92;49.88
11648;BME280;5880;52.342;9.662;2023-04-09T03:14:47;102037.63;;;9.87;50.07
11648;BME280;5880;52.342;9.662;2023-04-09T03:17:12;102037.19;;;9.83;49.96
11648;BME280;5880;52.342;9.662;2023-04-09T03:19:38;102031.34;;;9.86;50.14
11648;BME280;5880;52.342;9.662;2023-04-09T03:22:04;102035.09;;;9.85;50.06
11648;BME280;5880;52.342;9.662;2023-04-09T03:24:31;102031.53;;;9.85;50.07
11648;BME280;5880;52.342;9.662;2023-04-09T03:26:57;102032.09;;;9.80;49.87
11648;BME280;5880;52.342;9.662;2023-04-09T03:29:23;102029.94;;;9.76;50.02
11648;BME280;5880;52.342;9.662;2023-04-09T03:31:49;102032.59;;;9.69;50.18
11648;BME280;5880;52.342;9.662;2023-04-09T03:34:15;102031.09;;;9.66;50.12
11648;BME280;5880;52.342;9.662;2023-04-09T03:36:40;102026.88;;;9.64;50.08
11648;BME280;5880;52.342;9.662;2023-04-09T03:39:06;102032.81;;;9.67;50.06
11648;BME280;5880;52.342;9.662;2023-04-09T03:41:32;102030.25;;;9.66;50.36
11648;BME280;5880;52.342;9.662;2023-04-09T03:43:57;102033.00;;;9.66;50.05
11648;BME280;5880;52.342;9.662;2023-04-09T03:46:23;102024.81;;;9.66;50.09
11648;BME280;5880;52.342;9.662;2023-04-09T03:48:49;102033.38;;;9.63;50.12
11648;BME280;5880;52.342;9.662;2023-04-09T03:51:16;102028.09;;;9.61;50.15
11648;BME280;5880;52.342;9.662;2023-04-09T03:53:42;102028.28;;;9.60;50.04
11648;BME280;5880;52.342;9.662;2023-04-09T03:56:09;102024.94;;;9.58;50.14
11648;BME280;5880;52.342;9.662;2023-04-09T03:58:35;102024.94;;;9.58;50.06
11648;BME280;5880;52.342;9.662;2023-04-09T04:01:02;102033.13;;;9.58;50.21
11648;BME280;5880;52.342;9.662;2023-04-09T04:03:28;102029.50;;;9.57;50.25
11648;BME280;5880;52.342;9.662;2023-04-09T04:06:00;102032.91;;;9.59;50.13
11648;BME280;5880;52.342;9.662;2023-04-09T04:08:27;102037.69;;;9.57;50.02
11648;BME280;5880;52.342;9.662;2023-04-09T04:10:53;102030.97;;;9.53;50.00
11648;BME280;5880;52.342;9.662;2023-04-09T04:13:18;102046.84;;;9.49;50.02
11648;BME280;5880;52.342;9.662;2023-04-09T04:15:44;102043.03;;;9.44;50.01
11648;BME280;5880;52.342;9.662;2023-04-09T04:18:10;102044.44;;;9.40;50.27
11648;BME280;5880;52.342;9.662;2023-04-09T04:20:37;102045.44;;;9.39;50.21
11648;BME280;5880;52.342;9.662;2023-04-09T04:23:03;102055.06;;;9.35;50.14
11648;BME280;5880;52.342;9.662;2023-04-09T04:25:30;102047.91;;;9.34;50.31
11648;BME280;5880;52.342;9.662;2023-04-09T04:27:56;102047.91;;;9.34;50.27
11648;BME280;5880;52.342;9.662;2023-04-09T04:30:22;102046.88;;;9.35;50.46
11648;BME280;5880;52.342;9.662;2023-04-09T04:32:48;102040.59;;;9.34;50.24
11648;BME280;5880;52.342;9.662;2023-04-09T04:35:14;102040.28;;;9.29;50.29
11648;BME280;5880;52.342;9.662;2023-04-09T04:37:41;102046.97;;;9.26;50.28
11648;BME280;5880;52.342;9.662;2023-04-09T04:40:08;102047.19;;;9.25;50.56
11648;BME280;5880;52.342;9.662;2023-04-09T04:42:34;102050.94;;;9.24;50.42
11648;BME280;5880;52.342;9.662;2023-04-09T04:44:59;102045.00;;;9.20;50.67
11648;BME280;5880;52.342;9.662;2023-04-09T04:47:25;102053.66;;;9.24;50.50
11648;BME280;5880;52.342;9.662;2023-04-09T04:49:51;102057.03;;;9.26;50.88
11648;BME280;5880;52.342;9.662;2023-04-09T04:52:17;102061.84;;;9.24;50.67
11648;BME280;5880;52.342;9.662;2023-04-09T04:54:43;102057.22;;;9.24;50.81
11648;BME280;5880;52.342;9.662;2023-04-09T04:57:08;102063.72;;;9.23;50.66
11648;BME280;5880;52.342;9.662;2023-04-09T04:59:38;102053.84;;;9.22;50.63
11648;BME280;5880;52.342;9.662;2023-04-09T05:02:06;102065.78;;;9.21;50.57
11648;BME280;5880;52.342;9.662;2023-04-09T05:04:32;102062.22;;;9.21;50.72
11648;BME280;5880;52.342;9.662;2023-04-09T05:06:57;102057.16;;;9.18;50.62
11648;BME280;5880;52.342;9.662;2023-04-09T05:09:23;102060.81;;;9.25;50.68
11648;BME280;5880;52.342;9.662;2023-04-09T05:11:49;102076.53;;;9.23;50.60
11648;BME280;5880;52.342;9.662;2023-04-09T05:14:14;102069.66;;;9.12;50.69
11648;BME280;5880;52.342;9.662;2023-04-09T05:16:40;102071.34;;;9.13;50.51
11648;BME280;5880;52.342;9.662;2023-04-09T05:19:06;102084.34;;;9.11;50.49
11648;BME280;5880;52.342;9.662;2023-04-09T05:21:31;102078.56;;;9.06;50.41
11648;BME280;5880;52.342;9.662;2023-04-09T05:23:57;102085.06;;;9.05;50.60
11648;BME280;5880;52.342;9.662;2023-04-09T05:26:23;102076.72;;;9.06;50.71
11648;BME280;5880;52.342;9.662;2023-04-09T05:28:49;102077.16;;;9.10;50.58
11648;BME280;5880;52.342;9.662;2023-04-09T05:31:14;102085.34;;;9.10;50.63
11648;BME280;5880;52.342;9.662;2023-04-09T05:33:43;102089.31;;;9.07;50.55
11648;BME280;5880;52.342;9.662;2023-04-09T05:36:15;102089.13;;;9.09;50.80
11648;BME280;5880;52.342;9.662;2023-04-09T05:38:42;102084.03;;;9.06;50.43
11648;BME280;5880;52.342;9.662;2023-04-09T05:41:08;102086.97;;;9.04;50.51
11648;BME280;5880;52.342;9.662;2023-04-09T05:43:33;102096.16;;;9.03;50.49
11648;BME280;5880;52.342;9.662;2023-04-09T05:45:59;102091.56;;;9.04;50.68
11648;BME280;5880;52.342;9.662;2023-04-09T05:48:25;102093.06;;;9.06;50.52
11648;BME280;5880;52.342;9.662;2023-04-09T05:50:52;102095.59;;;9.08;50.56
11648;BME280;5880;52.342;9.662;2023-04-09T05:53:18;102092.69;;;9.09;50.92
11648;BME280;5880;52.342;9.662;2023-04-09T05:55:45;102098.63;;;9.13;50.70
11648;BME280;5880;52.342;9.662;2023-04-09T05:58:11;102101.16;;;9.15;51.01
11648;BME280;5880;52.342;9.662;2023-04-09T06:00:37;102100.81;;;9.18;50.77
11648;BME280;5880;52.342;9.662;2023-04-09T06:03:03;102102.31;;;9.20;50.77
11648;BME280;5880;52.342;9.662;2023-04-09T06:05:29;102096.66;;;9.22;50.97
11648;BME280;5880;52.342;9.662;2023-04-09T06:07:55;102093.56;;;9.25;50.85
11648;BME280;5880;52.342;9.662;2023-04-09T06:10:21;102093.56;;;9.25;50.75
11648;BME280;5880;52.342;9.662;2023-04-09T06:12:47;102088.75;;;9.27;50.86
11648;BME280;5880;52.342;9.662;2023-04-09T06:15:13;102093.19;;;9.28;50.81
11648;BME280;5880;52.342;9.662;2023-04-09T06:17:38;102097.78;;;9.27;50.92
11648;BME280;5880;52.342;9.662;2023-04-09T06:20:05;102086.88;;;9.27;50.97
11648;BME280;5880;52.342;9.662;2023-04-09T06:22:31;102092.13;;;9.29;51.00
11648;BME280;5880;52.342;9.662;2023-04-09T06:24:56;102095.34;;;9.33;51.08
11648;BME280;5880;52.342;9.662;2023-04-09T06:27:22;102091.56;;;9.34;51.28
11648;BME280;5880;52.342;9.662;2023-04-09T06:29:48;102096.84;;;9.35;51.27
11648;BME280;5880;52.342;9.662;2023-04-09T06:32:13;102100.25;;;9.37;51.30
11648;BME280;5880;52.342;9.662;2023-04-09T06:34:39;102102.75;;;9.39;51.13
11648;BME280;5880;52.342;9.662;2023-04-09T06:37:05;102089.31;;;9.37;51.17
11648;BME280;5880;52.342;9.662;2023-04-09T06:39:30;102097.97;;;9.41;51.23
11648;BME280;5880;52.342;9.662;2023-04-09T06:41:57;102100.34;;;9.44;51.42
11648;BME280;5880;52.342;9.662;2023-04-09T06:44:23;102102.50;;;9.48;51.58
11648;BME280;5880;52.342;9.662;2023-04-09T06:46:49;102109.72;;;9.56;51.59
11648;BME280;5880;52.342;9.662;2023-04-09T06:49:15;102105.38;;;9.62;51.82
11648;BME280;5880;52.342;9.662;2023-04-09T06:51:40;102105.03;;;9.65;51.63
11648;BME280;5880;52.342;9.662;2023-04-09T06:54:06;102107.81;;;9.71;51.74
11648;BME280;5880;52.342;9.662;2023-04-09T06:56:33;102113.56;;;9.77;51.84
11648;BME280;5880;52.342;9.662;2023-04-09T06:58:59;102099.06;;;9.76;52.00
11648;BME280;5880;52.342;9.662;2023-04-09T07:01:26;102098.13;;;9.84;52.03
11648;BME280;5880;52.342;9.662;2023-04-09T07:03:52;102107.81;;;9.86;51.65
11648;BME280;5880;52.342;9.662;2023-04-09T07:06:18;102107.59;;;9.88;52.05
11648;BME280;5880;52.342;9.662;2023-04-09T07:08:43;102112.47;;;9.92;52.06
11648;BME280;5880;52.342;9.662;2023-04-09T07:11:09;102111.91;;;9.97;52.27
11648;BME280;5880;52.342;9.662;2023-04-09T07:13:35;102104.63;;;10.04;52.27
11648;BME280;5880;52.342;9.662;2023-04-09T07:16:00;102106.78;;;10.09;52.49
11648;BME280;5880;52.342;9.662;2023-04-09T07:18:26;102109.81;;;10.14;52.35
11648;BME280;5880;52.342;9.662;2023-04-09T07:20:52;102102.72;;;10.20;52.52
11648;BME280;5880;52.342;9.662;2023-04-09T07:23:18;102095.44;;;10.27;52.57
11648;BME280;5880;52.342;9.662;2023-04-09T07:25:44;102105.81;;;10.31;52.49
11648;BME280;5880;52.342;9.662;2023-04-09T07:28:09;102102.91;;;10.33;52.59
11648;BME280;5880;52.342;9.662;2023-04-09T07:30:36;102112.59;;;10.35;52.59
11648;BME280;5880;52.342;9.662;2023-04-09T07:33:02;102102.97;;;10.40;52.62
11648;BME280;5880;52.342;9.662;2023-04-09T07:35:28;102111.59;;;10.43;52.82
11648;BME280;5880;52.342;9.662;2023-04-09T07:37:53;102108.09;;;10.49;52.78
11648;BME280;5880;52.342;9.662;2023-04-09T07:40:19;102105.44;;;10.56;52.79
11648;BME280;5880;52.342;9.662;2023-04-09T07:42:45;102106.53;;;10.62;52.97
11648;BME280;5880;52.342;9.662;2023-04-09T07:45:10;102109.50;;;10.67;53.27
11648;BME280;5880;52.342;9.662;2023-04-09T07:47:38;102112.31;;;10.73;53.17
11648;BME280;5880;52.342;9.662;2023-04-09T07:50:05;102112.78;;;10.77;53.22
11648;BME280;5880;52.342;9.662;2023-04-09T07:52:31;102114.28;;;10.86;53.27
11648;BME280;5880;52.342;9.662;2023-04-09T07:54:57;102108.22;;;10.91;53.16
11648;BME280;5880;52.342;9.662;2023-04-09T07:57:22;102111.88;;;10.98;53.17
11648;BME280;5880;52.342;9.662;2023-04-09T07:59:48;102106.44;;;11.05;53.16
11648;BME280;5880;52.342;9.662;2023-04-09T08:02:14;102104.22;;;11.15;53.38
11648;BME280;5880;52.342;9.662;2023-04-09T08:04:40;102108.88;;;11.21;53.45
11648;BME280;5880;52.342;9.662;2023-04-09T08:07:05;102111.00;;;11.26;53.38
11648;BME280;5880;52.342;9.662;2023-04-09T08:09:32;102107.88;;;11.29;53.33
11648;BME280;5880;52.342;9.662;2023-04-09T08:11:57;102109.81;;;11.35;53.38
11648;BME280;5880;52.342;9.662;2023-04-09T08:14:23;102110.50;;;11.44;53.74
11648;BME280;5880;52.342;9.662;2023-04-09T08:16:49;102107.78;;;11.50;53.69
11648;BME280;5880;52.342;9.662;2023-04-09T08:19:16;102103.84;;;11.59;53.73
11648;BME280;5880;52.342;9.662;2023-04-09T08:21:42;102108.50;;;11.66;53.54
11648;BME280;5880;52.342;9.662;2023-04-09T08:24:09;102110.44;;;11.72;53.31
11648;BME280;5880;52.342;9.662;2023-04-09T08:26:40;102113.19;;;11.78;53.33
11648;BME280;5880;52.342;9.662;2023-04-09T08:29:08;102112.78;;;11.81;53.71
11648;BME280;5880;52.342;9.662;2023-04-09T08:31:34;102115.97;;;11.85;53.56
11648;BME280;5880;52.342;9.662;2023-04-09T08:34:01;102107.94;;;11.83;53.63
11648;BME280;5880;52.342;9.662;2023-04-09T08:36:26;102109.91;;;11.90;53.35
11648;BME280;5880;52.342;9.662;2023-04-09T08:38:52;102113.47;;;11.90;53.29
11648;BME280;5880;52.342;9.662;2023-04-09T08:41:22;102106.09;;;11.91;53.67
11648;BME280;5880;52.342;9.662;2023-04-09T08:43:50;102114.34;;;11.97;53.49
11648;BME280;5880;52.342;9.662;2023-04-09T08:46:18;102112.44;;;11.98;53.53
11648;BME280;5880;52.342;9.662;2023-04-09T08:48:45;102114.78;;;12.01;53.03
11648;BME280;5880;52.342;9.662;2023-04-09T08:51:16;102109.94;;;12.03;53.29
11648;BME280;5880;52.342;9.662;2023-04-09T08:53:45;102116.69;;;12.07;53.35
11648;BME280;5880;52.342;9.662;2023-04-09T08:56:13;102101.72;;;12.10;53.21
11648;BME280;5880;52.342;9.662;2023-04-09T08:58:43;102100.69;;;12.11;53.54
11648;BME280;5880;52.342;9.662;2023-04-09T09:01:30;102108.72;;;12.19;53.45
11648;BME280;5880;52.342;9.662;2023-04-09T09:04:02;102110.63;;;12.18;53.36
11648;BME280;5880;52.342;9.662;2023-04-09T09:06:38;102108.53;;;12.20;53.38
11648;BME280;5880;52.342;9.662;2023-04-09T09:09:07;102111.28;;;12.27;53.46
11648;BME280;5880;52.342;9.662;2023-04-09T09:11:40;102117.63;;;12.34;53.38
11648;BME280;5880;52.342;9.662;2023-04-09T09:14:17;102106.03;;;12.39;53.05
11648;BME280;5880;52.342;9.662;2023-04-09T09:17:03;102109.00;;;12.44;53.00
11648;BME280;5880;52.342;9.662;2023-04-09T09:19:31;102109.19;;;12.49;53.36
11648;BME280;5880;52.342;9.662;2023-04-09T09:22:05;102112.16;;;12.54;53.60
11648;BME280;5880;52.342;9.662;2023-04-09T09:24:32;102111.75;;;12.57;53.27
11648;BME280;5880;52.342;9.662;2023-04-09T09:26:59;102106.03;;;12.59;53.41
11648;BME280;5880;52.342;9.662;2023-04-09T09:29:27;102112.59;;;12.64;53.35
11648;BME280;5880;52.342;9.662;2023-04-09T09:31:55;102110.28;;;12.68;53.44
11648;BME280;5880;52.342;9.662;2023-04-09T09:34:23;102112.38;;;12.73;53.20
11648;BME280;5880;52.342;9.662;2023-04-09T09:36:49;102110.28;;;12.75;53.41
11648;BME280;5880;52.342;9.662;2023-04-09T09:39:15;102110.47;;;12.80;53.35
11648;BME280;5880;52.342;9.662;2023-04-09T09:41:46;102107.75;;;12.86;53.49
11648;BME280;5880;52.342;9.662;2023-04-09T09:44:31;102099.72;;;12.92;53.34
11648;BME280;5880;52.342;9.662;2023-04-09T09:46:58;102110.91;;;12.97;53.51
11648;BME280;5880;52.342;9.662;2023-04-09T09:49:23;102102.25;;;13.00;53.31
11648;BME280;5880;52.342;9.662;2023-04-09T09:51:52;102105.41;;;13.10;53.34
11648;BME280;5880;52.342;9.662;2023-04-09T09:54:24;102108.13;;;13.17;53.24
11648;BME280;5880;52.342;9.662;2023-04-09T09:56:54;102110.25;;;13.21;53.20
11648;BME280;5880;52.342;9.662;2023-04-09T09:59:29;102103.28;;;13.25;53.28
11648;BME280;5880;52.342;9.662;2023-04-09T10:02:05;102104.53;;;13.29;53.35
11648;BME280;5880;52.342;9.662;2023-04-09T10:04:34;102104.34;;;13.38;53.19
11648;BME280;5880;52.342;9.662;2023-04-09T10:07:05;102109.56;;;13.46;53.09
11648;BME280;5880;52.342;9.662;2023-04-09T10:09:40;102098.38;;;13.54;53.39
11648;BME280;5880;52.342;9.662;2023-04-09T10:12:08;102094.13;;;13.58;53.26
11648;BME280;5880;52.342;9.662;2023-04-09T10:14:37;102091.34;;;13.65;53.31
11648;BME280;5880;52.342;9.662;2023-04-09T10:17:03;102095.53;;;13.74;53.28
11648;BME280;5880;52.342;9.662;2023-04-09T10:19:30;102087.44;;;13.86;53.42
11648;BME280;5880;52.342;9.662;2023-04-09T10:22:17;102089.50;;;13.97;52.87
11648;BME280;5880;52.342;9.662;2023-04-09T10:24:45;102075.56;;;13.99;53.02
11648;BME280;5880;52.342;9.662;2023-04-09T10:27:14;102075.50;;;14.12;53.03
11648;BME280;5880;52.342;9.662;2023-04-09T10:29:47;102072.88;;;14.24;53.00
11648;BME280;5880;52.342;9.662;2023-04-09T10:32:21;102064.97;;;14.34;53.15
11648;BME280;5880;52.342;9.662;2023-04-09T10:34:50;102065.72;;;14.48;53.15
11648;BME280;5880;52.342;9.662;2023-04-09T10:37:22;102063.47;;;14.63;52.97
11648;BME280;5880;52.342;9.662;2023-04-09T10:39:50;102061.09;;;14.73;52.89
11648;BME280;5880;52.342;9.662;2023-04-09T10:42:34;102056.75;;;14.84;52.49
11648;BME280;5880;52.342;9.662;2023-04-09T10:45:07;102051.63;;;14.88;52.31
11648;BME280;5880;52.342;9.662;2023-04-09T10:47:36;102055.84;;;14.90;52.10
11648;BME280;5880;52.342;9.662;2023-04-09T10:50:23;102052.47;;;14.88;51.66
11648;BME280;5880;52.342;9.662;2023-04-09T10:52:55;102051.00;;;14.86;51.66
11648;BME280;5880;52.342;9.662;2023-04-09T10:55:40;102049.34;;;14.85;51.48
11648;BME280;5880;52.342;9.662;2023-04-09T10:58:08;102054.00;;;14.84;51.52
11648;BME280;5880;52.342;9.662;2023-04-09T11:00:43;102052.94;;;14.85;51.35
11648;BME280;5880;52.342;9.662;2023-04-09T11:06:01;102049.97;;;14.87;51.09
11648;BME280;5880;52.342;9.662;2023-04-09T11:08:29;102055.06;;;14.83;51.26
11648;BME280;5880;52.342;9.662;2023-04-09T11:10:55;102056.16;;;14.82;51.08
11648;BME280;5880;52.342;9.662;2023-04-09T11:13:24;102054.44;;;14.81;51.03
11648;BME280;5880;52.342;9.662;2023-04-09T11:15:50;102047.03;;;14.82;50.97
11648;BME280;5880;52.342;9.662;2023-04-09T11:18:22;102050.84;;;14.81;50.75
11648;BME280;5880;52.342;9.662;2023-04-09T11:20:49;102049.00;;;14.74;50.68
11648;BME280;5880;52.342;9.662;2023-04-09T11:23:16;102049.91;;;14.68;50.64
11648;BME280;5880;52.342;9.662;2023-04-09T11:25:42;102045.94;;;14.64;50.43
11648;BME280;5880;52.342;9.662;2023-04-09T11:28:13;102055.00;;;14.65;50.46
11648;BME280;5880;52.342;9.662;2023-04-09T11:30:38;102049.97;;;14.62;50.41
11648;BME280;5880;52.342;9.662;2023-04-09T11:33:05;102055.31;;;14.56;50.45
11648;BME280;5880;52.342;9.662;2023-04-09T11:35:34;102051.94;;;14.54;50.38
11648;BME280;5880;52.342;9.662;2023-04-09T11:38:06;102043.91;;;14.46;50.18
11648;BME280;5880;52.342;9.662;2023-04-09T11:40:32;102059.81;;;14.44;50.37
11648;BME280;5880;52.342;9.662;2023-04-09T11:42:58;102052.47;;;14.38;50.39
11648;BME280;5880;52.342;9.662;2023-04-09T11:45:28;102057.34;;;14.36;50.53
11648;BME280;5880;52.342;9.662;2023-04-09T11:47:54;102057.53;;;14.34;50.82
11648;BME280;5880;52.342;9.662;2023-04-09T11:50:21;102051.84;;;14.36;50.76
11648;BME280;5880;52.342;9.662;2023-04-09T11:52:50;102052.22;;;14.40;50.61
11648;BME280;5880;52.342;9.662;2023-04-09T11:55:28;102056.22;;;14.44;50.69
11648;BME280;5880;52.342;9.662;2023-04-09T11:57:58;102059.38;;;14.47;50.79
11648;BME280;5880;52.342;9.662;2023-04-09T12:00:28;102056.38;;;14.49;50.73
11648;BME280;5880;52.342;9.662;2023-04-09T12:03:03;102048.75;;;14.51;50.63
11648;BME280;5880;52.342;9.662;2023-04-09T12:05:33;102052.97;;;14.53;50.90
11648;BME280;5880;52.342;9.662;2023-04-09T12:08:03;102056.38;;;14.55;50.41
11648;BME280;5880;52.342;9.662;2023-04-09T12:10:32;102045.78;;;14.52;50.35
11648;BME280;5880;52.342;9.662;2023-04-09T12:13:05;102050.44;;;14.59;50.36
11648;BME280;5880;52.342;9.662;2023-04-09T12:15:34;102048.50;;;14.59;50.20
11648;BME280;5880;52.342;9.662;2023-04-09T12:18:00;102042.59;;;14.55;50.10
11648;BME280;5880;52.342;9.662;2023-04-09T12:20:35;102047.69;;;14.59;50.09
11648;BME280;5880;52.342;9.662;2023-04-09T12:23:03;102041.09;;;14.60;50.27
11648;BME280;5880;52.342;9.662;2023-04-09T12:25:38;102041.25;;;14.65;50.32
11648;BME280;5880;52.342;9.662;2023-04-09T12:28:06;102032.53;;;14.68;50.02
11648;BME280;5880;52.342;9.662;2023-04-09T12:30:32;102034.41;;;14.74;50.32
11648;BME280;5880;52.342;9.662;2023-04-09T12:32:59;102028.38;;;14.84;50.20
11648;BME280;5880;52.342;9.662;2023-04-09T12:35:24;102020.28;;;14.89;50.13
11648;BME280;5880;52.342;9.662;2023-04-09T12:37:50;102017.69;;;14.94;50.05
11648;BME280;5880;52.342;9.662;2023-04-09T12:40:18;102019.16;;;14.96;49.97
11648;BME280;5880;52.342;9.662;2023-04-09T12:42:45;102018.69;;;14.99;49.90
11648;BME280;5880;52.342;9.662;2023-04-09T12:45:16;102015.25;;;15.04;49.89
11648;BME280;5880;52.342;9.662;2023-04-09T12:47:43;102009.91;;;15.09;49.73
11648;BME280;5880;52.342;9.662;2023-04-09T12:50:11;102010.03;;;15.14;49.48
11648;BME280;5880;52.342;9.662;2023-04-09T12:52:37;102000.03;;;15.20;49.62
11648;BME280;5880;52.342;9.662;2023-04-09T12:55:04;102001.03;;;15.26;49.68
11648;BME280;5880;52.342;9.662;2023-04-09T12:57:31;102007.44;;;15.38;49.76
11648;BME280;5880;52.342;9.662;2023-04-09T12:59:58;102000.31;;;15.49;49.60
11648;BME280;5880;52.342;9.662;2023-04-09T13:02:25;101987.78;;;15.53;49.54
11648;BME280;5880;52.342;9.662;2023-04-09T13:04:51;101995.25;;;15.64;49.15
11648;BME280;5880;52.342;9.662;2023-04-09T13:07:17;101999.44;;;15.67;49.14
11648;BME280;5880;52.342;9.662;2023-04-09T13:09:47;101993.03;;;15.73;49.28
11648;BME280;5880;52.342;9.662;2023-04-09T13:12:15;101993.41;;;15.76;48.21
11648;BME280;5880;52.342;9.662;2023-04-09T13:14:43;101990.19;;;15.79;48.28
11648;BME280;5880;52.342;9.662;2023-04-09T13:17:09;101989.13;;;15.80;48.18
11648;BME280;5880;52.342;9.662;2023-04-09T13:19:35;101987.41;;;15.79;47.99